sensor_id;sensor_type;location;lat;lon;timestamp;temperature;humidity
45108;DHT22;30869;51.188;6.556;2022-12-07T00:00:29;4.10;99.90
45108;DHT22;30869;51.188;6.556;2022-12-07T00:02:55;4.00;99.90
45108;DHT22;30869;51.188;6.556;2022-12-07T00:05:21;4.10;99.90
45108;DHT22;30869;51.188;6.556;2022-12-07T00:07:47;4.00;99.90
45108;DHT22;30869;51.188;6.556;2022-12-07T00:10:12;4.00;99.90
45108;DHT22;30869;51.188;6.556;2022-12-07T00:12:38;3.90;99.90
45108;DHT22;30869;51.188;6.556;2022-12-07T00:15:04;3.90;99.90
45108;DHT22;30869;51.188;6.556;2022-12-07T00:17:30;3.90;99.90
45108;DHT22;30869;51.188;6.556;2022-12-07T00:19:56;4.00;99.90
45108;DHT22;30869;51.188;6.556;2022-12-07T00:22:21;3.90;99.90
45108;DHT22;30869;51.188;6.556;2022-12-07T00:24:47;3.90;99.90
45108;DHT22;30869;51.188;6.556;2022-12-07T00:27:13;3.90;99.90
45108;DHT22;30869;51.188;6.556;2022-12-07T00:29:38;4.00;99.90
45108;DHT22;30869;51.188;6.556;2022-12-07T00:32:04;4.00;99.90
45108;DHT22;30869;51.188;6.556;2022-12-07T00:38:27;4.10;99.90
45108;DHT22;30869;51.188;6.556;2022-12-07T00:41:18;4.10;99.90
45108;DHT22;30869;51.188;6.556;2022-12-07T00:44:14;4.20;99.90
45108;DHT22;30869;51.188;6.556;2022-12-07T00:46:53;4.20;99.90
45108;DHT22;30869;51.188;6.556;2022-12-07T00:49:31;4.10;99.90
45108;DHT22;30869;51.188;6.556;2022-12-07T00:52:35;4.20;99.90
45108;DHT22;30869;51.188;6.556;2022-12-07T00:55:35;4.20;99.90
45108;DHT22;30869;51.188;6.556;2022-12-07T00:58:01;4.20;99.90
45108;DHT22;30869;51.188;6.556;2022-12-07T01:00:27;4.20;99.90
45108;DHT22;30869;51.188;6.556;2022-12-07T01:02:52;4.20;99.90
45108;DHT22;30869;51.188;6.556;2022-12-07T01:05:18;4.20;99.90
45108;DHT22;30869;51.188;6.556;2022-12-07T01:07:44;4.20;99.90
45108;DHT22;30869;51.188;6.556;2022-12-07T01:10:12;4.20;99.90
45108;DHT22;30869;51.188;6.556;2022-12-07T01:12:37;4.20;99.90
45108;DHT22;30869;51.188;6.556;2022-12-07T01:15:04;4.20;99.90
45108;DHT22;30869;51.188;6.556;2022-12-07T01:17:30;4.10;99.90
45108;DHT22;30869;51.188;6.556;2022-12-07T01:19:55;4.30;99.90
45108;DHT22;30869;51.188;6.556;2022-12-07T01:22:21;4.20;99.90
45108;DHT22;30869;51.188;6.556;2022-12-07T01:24:47;4.20;99.90
45108;DHT22;30869;51.188;6.556;2022-12-07T01:27:13;4.20;99.90
45108;DHT22;30869;51.188;6.556;2022-12-07T01:29:39;4.20;99.90
45108;DHT22;30869;51.188;6.556;2022-12-07T01:32:04;4.20;99.90
45108;DHT22;30869;51.188;6.556;2022-12-07T01:34:30;4.20;99.90
45108;DHT22;30869;51.188;6.556;2022-12-07T01:36:56;4.30;99.90
45108;DHT22;30869;51.188;6.556;2022-12-07T01:39:23;4.20;99.90
45108;DHT22;30869;51.188;6.556;2022-12-07T01:41:48;4.30;99.90
45108;DHT22;30869;51.188;6.556;2022-12-07T01:46:49;4.30;99.90
45108;DHT22;30869;51.188;6.556;2022-12-07T01:49:21;4.20;99.90
45108;DHT22;30869;51.188;6.556;2022-12-07T01:51:49;4.30;99.90
45108;DHT22;30869;51.188;6.556;2022-12-07T01:54:16;4.30;99.90
45108;DHT22;30869;51.188;6.556;2022-12-07T01:56:50;4.30;99.90
45108;DHT22;30869;51.188;6.556;2022-12-07T01:59:18;4.20;99.90
45108;DHT22;30869;51.188;6.556;2022-12-07T02:01:44;4.20;99.90
45108;DHT22;30869;51.188;6.556;2022-12-07T02:04:11;4.20;99.90
45108;DHT22;30869;51.188;6.556;2022-12-07T02:06:37;4.20;99.90
45108;DHT22;30869;51.188;6.556;2022-12-07T02:09:04;4.20;99.90
45108;DHT22;30869;51.188;6.556;2022-12-07T02:11:30;4.20;99.90
45108;DHT22;30869;51.188;6.556;2022-12-07T02:13:56;4.20;99.90
45108;DHT22;30869;51.188;6.556;2022-12-07T02:16:47;4.20;99.90
45108;DHT22;30869;51.188;6.556;2022-12-07T02:22:32;4.20;99.90
45108;DHT22;30869;51.188;6.556;2022-12-07T02:28:04;4.20;99.90
45108;DHT22;30869;51.188;6.556;2022-12-07T02:30:34;4.30;99.90
45108;DHT22;30869;51.188;6.556;2022-12-07T02:38:55;4.20;99.90
45108;DHT22;30869;51.188;6.556;2022-12-07T02:41:25;4.30;99.90
45108;DHT22;30869;51.188;6.556;2022-12-07T02:43:56;4.20;99.90
45108;DHT22;30869;51.188;6.556;2022-12-07T02:46:27;4.30;99.90
45108;DHT22;30869;51.188;6.556;2022-12-07T02:48:54;4.20;99.90
45108;DHT22;30869;51.188;6.556;2022-12-07T02:51:21;4.20;99.90
45108;DHT22;30869;51.188;6.556;2022-12-07T02:53:47;4.20;99.90
45108;DHT22;30869;51.188;6.556;2022-12-07T02:59:28;4.20;99.90
45108;DHT22;30869;51.188;6.556;2022-12-07T03:05:27;4.30;99.90
45108;DHT22;30869;51.188;6.556;2022-12-07T03:08:13;4.30;99.90
45108;DHT22;30869;51.188;6.556;2022-12-07T03:11:00;4.30;99.90
45108;DHT22;30869;51.188;6.556;2022-12-07T03:16:13;4.30;99.90
45108;DHT22;30869;51.188;6.556;2022-12-07T03:18:53;4.30;99.90
45108;DHT22;30869;51.188;6.556;2022-12-07T03:21:27;4.30;99.90
45108;DHT22;30869;51.188;6.556;2022-12-07T03:23:56;4.30;99.90
45108;DHT22;30869;51.188;6.556;2022-12-07T03:26:30;4.30;99.90
45108;DHT22;30869;51.188;6.556;2022-12-07T03:28:59;4.30;99.90
45108;DHT22;30869;51.188;6.556;2022-12-07T03:31:33;4.20;99.90
45108;DHT22;30869;51.188;6.556;2022-12-07T03:34:14;4.20;99.90
45108;DHT22;30869;51.188;6.556;2022-12-07T03:36:57;4.20;99.90
45108;DHT22;30869;51.188;6.556;2022-12-07T03:39:33;4.20;99.90
45108;DHT22;30869;51.188;6.556;2022-12-07T03:42:01;4.20;99.90
45108;DHT22;30869;51.188;6.556;2022-12-07T03:44:28;4.20;99.90
45108;DHT22;30869;51.188;6.556;2022-12-07T03:49:48;4.10;99.90
45108;DHT22;30869;51.188;6.556;2022-12-07T03:52:42;4.20;99.90
45108;DHT22;30869;51.188;6.556;2022-12-07T03:55:29;4.20;99.90
45108;DHT22;30869;51.188;6.556;2022-12-07T03:57:58;4.10;99.90
45108;DHT22;30869;51.188;6.556;2022-12-07T04:00:26;4.10;99.90
45108;DHT22;30869;51.188;6.556;2022-12-07T04:02:52;4.10;99.90
45108;DHT22;30869;51.188;6.556;2022-12-07T04:05:18;4.10;99.90
45108;DHT22;30869;51.188;6.556;2022-12-07T04:07:44;4.10;99.90
45108;DHT22;30869;51.188;6.556;2022-12-07T04:10:10;4.00;99.90
45108;DHT22;30869;51.188;6.556;2022-12-07T04:12:36;4.10;99.90
45108;DHT22;30869;51.188;6.556;2022-12-07T04:15:03;4.00;99.90
45108;DHT22;30869;51.188;6.556;2022-12-07T04:17:29;4.00;99.90
45108;DHT22;30869;51.188;6.556;2022-12-07T04:19:55;4.10;99.90
45108;DHT22;30869;51.188;6.556;2022-12-07T04:22:20;4.00;99.90
45108;DHT22;30869;51.188;6.556;2022-12-07T04:24:46;4.00;99.90
45108;DHT22;30869;51.188;6.556;2022-12-07T04:27:11;4.10;99.90
45108;DHT22;30869;51.188;6.556;2022-12-07T04:29:37;4.10;99.90
45108;DHT22;30869;51.188;6.556;2022-12-07T04:32:03;4.10;99.90
45108;DHT22;30869;51.188;6.556;2022-12-07T04:34:29;4.10;99.90
45108;DHT22;30869;51.188;6.556;2022-12-07T04:36:54;4.10;99.90
45108;DHT22;30869;51.188;6.556;2022-12-07T04:39:26;4.10;99.90
45108;DHT22;30869;51.188;6.556;2022-12-07T04:41:52;4.10;99.90
45108;DHT22;30869;51.188;6.556;2022-12-07T04:44:19;4.10;99.90
45108;DHT22;30869;51.188;6.556;2022-12-07T04:46:45;4.10;99.90
45108;DHT22;30869;51.188;6.556;2022-12-07T04:49:12;4.10;99.90
45108;DHT22;30869;51.188;6.556;2022-12-07T04:51:38;4.10;99.90
45108;DHT22;30869;51.188;6.556;2022-12-07T04:54:04;4.10;99.90
45108;DHT22;30869;51.188;6.556;2022-12-07T04:56:30;4.10;99.90
45108;DHT22;30869;51.188;6.556;2022-12-07T04:58:55;4.20;99.90
45108;DHT22;30869;51.188;6.556;2022-12-07T05:01:22;4.10;99.90
45108;DHT22;30869;51.188;6.556;2022-12-07T05:03:48;4.20;99.90
45108;DHT22;30869;51.188;6.556;2022-12-07T05:06:14;4.20;99.90
45108;DHT22;30869;51.188;6.556;2022-12-07T05:08:40;4.20;99.90
45108;DHT22;30869;51.188;6.556;2022-12-07T05:11:07;4.20;99.90
45108;DHT22;30869;51.188;6.556;2022-12-07T05:13:33;4.20;99.90
45108;DHT22;30869;51.188;6.556;2022-12-07T05:15:59;4.10;99.90
45108;DHT22;30869;51.188;6.556;2022-12-07T05:18:25;4.10;99.90
45108;DHT22;30869;51.188;6.556;2022-12-07T05:20:51;4.10;99.90
45108;DHT22;30869;51.188;6.556;2022-12-07T05:23:17;4.10;99.90
45108;DHT22;30869;51.188;6.556;2022-12-07T05:25:43;4.10;99.90
45108;DHT22;30869;51.188;6.556;2022-12-07T05:28:10;4.10;99.90
45108;DHT22;30869;51.188;6.556;2022-12-07T05:30:38;4.10;99.90
45108;DHT22;30869;51.188;6.556;2022-12-07T05:33:04;4.10;99.90
45108;DHT22;30869;51.188;6.556;2022-12-07T05:35:30;4.10;99.90
45108;DHT22;30869;51.188;6.556;2022-12-07T05:37:56;4.10;99.90
45108;DHT22;30869;51.188;6.556;2022-12-07T05:40:22;4.10;99.90
45108;DHT22;30869;51.188;6.556;2022-12-07T05:42:48;4.10;99.90
45108;DHT22;30869;51.188;6.556;2022-12-07T05:45:13;4.10;99.90
45108;DHT22;30869;51.188;6.556;2022-12-07T05:47:39;4.10;99.90
45108;DHT22;30869;51.188;6.556;2022-12-07T05:50:05;4.10;99.90
45108;DHT22;30869;51.188;6.556;2022-12-07T05:52:32;4.00;99.90
45108;DHT22;30869;51.188;6.556;2022-12-07T05:54:57;4.00;99.90
45108;DHT22;30869;51.188;6.556;2022-12-07T05:57:23;4.00;99.90
45108;DHT22;30869;51.188;6.556;2022-12-07T05:59:49;4.00;99.90
45108;DHT22;30869;51.188;6.556;2022-12-07T06:02:18;4.00;99.90
45108;DHT22;30869;51.188;6.556;2022-12-07T06:04:47;4.00;99.90
45108;DHT22;30869;51.188;6.556;2022-12-07T06:07:15;4.00;99.90
45108;DHT22;30869;51.188;6.556;2022-12-07T06:09:44;4.00;99.90
45108;DHT22;30869;51.188;6.556;2022-12-07T06:12:15;3.90;99.90
45108;DHT22;30869;51.188;6.556;2022-12-07T06:14:59;4.00;99.90
45108;DHT22;30869;51.188;6.556;2022-12-07T06:17:25;4.10;99.90
45108;DHT22;30869;51.188;6.556;2022-12-07T06:19:51;4.00;99.90
45108;DHT22;30869;51.188;6.556;2022-12-07T06:22:17;4.10;99.90
45108;DHT22;30869;51.188;6.556;2022-12-07T06:24:43;4.00;99.90
45108;DHT22;30869;51.188;6.556;2022-12-07T06:27:10;4.00;99.90
45108;DHT22;30869;51.188;6.556;2022-12-07T06:29:36;4.00;99.90
45108;DHT22;30869;51.188;6.556;2022-12-07T06:32:04;4.00;99.90
45108;DHT22;30869;51.188;6.556;2022-12-07T06:34:36;4.00;99.90
45108;DHT22;30869;51.188;6.556;2022-12-07T06:37:02;4.00;99.90
45108;DHT22;30869;51.188;6.556;2022-12-07T06:39:29;4.00;99.90
45108;DHT22;30869;51.188;6.556;2022-12-07T06:41:55;4.00;99.90
45108;DHT22;30869;51.188;6.556;2022-12-07T06:44:22;4.00;99.90
45108;DHT22;30869;51.188;6.556;2022-12-07T06:46:48;4.10;99.90
45108;DHT22;30869;51.188;6.556;2022-12-07T06:49:14;4.10;99.90
45108;DHT22;30869;51.188;6.556;2022-12-07T06:51:40;4.00;99.90
45108;DHT22;30869;51.188;6.556;2022-12-07T06:54:10;4.10;99.90
45108;DHT22;30869;51.188;6.556;2022-12-07T06:56:36;4.10;99.90
45108;DHT22;30869;51.188;6.556;2022-12-07T06:59:03;4.10;99.90
45108;DHT22;30869;51.188;6.556;2022-12-07T07:01:29;4.10;99.90
45108;DHT22;30869;51.188;6.556;2022-12-07T07:03:55;4.10;99.90
45108;DHT22;30869;51.188;6.556;2022-12-07T07:06:20;4.20;99.90
45108;DHT22;30869;51.188;6.556;2022-12-07T07:08:46;4.10;99.90
45108;DHT22;30869;51.188;6.556;2022-12-07T07:11:12;4.00;99.90
45108;DHT22;30869;51.188;6.556;2022-12-07T07:13:38;4.00;99.90
45108;DHT22;30869;51.188;6.556;2022-12-07T07:16:04;3.90;99.90
45108;DHT22;30869;51.188;6.556;2022-12-07T07:18:30;3.90;99.90
45108;DHT22;30869;51.188;6.556;2022-12-07T07:20:56;4.00;99.90
45108;DHT22;30869;51.188;6.556;2022-12-07T07:23:22;3.80;99.90
45108;DHT22;30869;51.188;6.556;2022-12-07T07:25:48;3.70;99.90
45108;DHT22;30869;51.188;6.556;2022-12-07T07:28:14;3.70;99.90
45108;DHT22;30869;51.188;6.556;2022-12-07T07:30:40;3.70;99.90
45108;DHT22;30869;51.188;6.556;2022-12-07T07:33:06;3.70;99.90
45108;DHT22;30869;51.188;6.556;2022-12-07T07:35:33;3.60;99.90
45108;DHT22;30869;51.188;6.556;2022-12-07T07:38:00;3.70;99.90
45108;DHT22;30869;51.188;6.556;2022-12-07T07:40:26;3.70;99.90
45108;DHT22;30869;51.188;6.556;2022-12-07T07:42:53;3.70;99.90
45108;DHT22;30869;51.188;6.556;2022-12-07T07:45:20;3.70;99.90
45108;DHT22;30869;51.188;6.556;2022-12-07T07:47:46;3.70;99.90
45108;DHT22;30869;51.188;6.556;2022-12-07T07:50:12;3.70;99.90
45108;DHT22;30869;51.188;6.556;2022-12-07T07:52:38;3.70;99.90
45108;DHT22;30869;51.188;6.556;2022-12-07T07:55:04;3.70;99.90
45108;DHT22;30869;51.188;6.556;2022-12-07T07:57:30;3.70;99.90
45108;DHT22;30869;51.188;6.556;2022-12-07T07:59:56;3.70;99.90
45108;DHT22;30869;51.188;6.556;2022-12-07T08:02:22;3.70;99.90
45108;DHT22;30869;51.188;6.556;2022-12-07T08:04:47;3.70;99.90
45108;DHT22;30869;51.188;6.556;2022-12-07T08:07:14;3.70;99.90
45108;DHT22;30869;51.188;6.556;2022-12-07T08:09:40;3.70;99.90
45108;DHT22;30869;51.188;6.556;2022-12-07T08:12:06;3.70;99.90
45108;DHT22;30869;51.188;6.556;2022-12-07T08:14:32;3.70;99.90
45108;DHT22;30869;51.188;6.556;2022-12-07T08:16:59;3.60;99.90
45108;DHT22;30869;51.188;6.556;2022-12-07T08:19:26;3.70;99.90
45108;DHT22;30869;51.188;6.556;2022-12-07T08:21:52;3.70;99.90
45108;DHT22;30869;51.188;6.556;2022-12-07T08:24:17;3.80;99.90
45108;DHT22;30869;51.188;6.556;2022-12-07T08:26:43;3.80;99.90
45108;DHT22;30869;51.188;6.556;2022-12-07T08:29:09;3.90;99.90
45108;DHT22;30869;51.188;6.556;2022-12-07T08:31:35;3.90;99.90
45108;DHT22;30869;51.188;6.556;2022-12-07T08:34:01;4.00;99.90
45108;DHT22;30869;51.188;6.556;2022-12-07T08:36:27;4.00;99.90
45108;DHT22;30869;51.188;6.556;2022-12-07T08:38:55;4.00;99.90
45108;DHT22;30869;51.188;6.556;2022-12-07T08:41:21;4.00;99.90
45108;DHT22;30869;51.188;6.556;2022-12-07T08:43:47;4.10;99.90
45108;DHT22;30869;51.188;6.556;2022-12-07T08:46:18;4.10;99.90
45108;DHT22;30869;51.188;6.556;2022-12-07T08:51:32;4.10;99.90
45108;DHT22;30869;51.188;6.556;2022-12-07T08:54:00;4.10;99.90
45108;DHT22;30869;51.188;6.556;2022-12-07T08:56:28;4.10;99.90
45108;DHT22;30869;51.188;6.556;2022-12-07T08:58:53;4.20;99.90
45108;DHT22;30869;51.188;6.556;2022-12-07T09:01:20;4.20;99.90
45108;DHT22;30869;51.188;6.556;2022-12-07T09:03:45;4.30;99.90
45108;DHT22;30869;51.188;6.556;2022-12-07T09:06:11;4.30;99.90
45108;DHT22;30869;51.188;6.556;2022-12-07T09:08:53;4.30;99.90
45108;DHT22;30869;51.188;6.556;2022-12-07T09:11:19;4.40;99.90
45108;DHT22;30869;51.188;6.556;2022-12-07T09:13:45;4.40;99.90
45108;DHT22;30869;51.188;6.556;2022-12-07T09:16:11;4.40;99.90
45108;DHT22;30869;51.188;6.556;2022-12-07T09:18:38;4.40;99.90
45108;DHT22;30869;51.188;6.556;2022-12-07T09:21:04;4.40;99.90
45108;DHT22;30869;51.188;6.556;2022-12-07T09:23:30;4.30;99.90
45108;DHT22;30869;51.188;6.556;2022-12-07T09:25:59;4.40;99.90
45108;DHT22;30869;51.188;6.556;2022-12-07T09:28:25;4.30;99.90
45108;DHT22;30869;51.188;6.556;2022-12-07T09:30:51;4.40;99.90
45108;DHT22;30869;51.188;6.556;2022-12-07T09:33:17;4.30;99.90
45108;DHT22;30869;51.188;6.556;2022-12-07T09:35:47;4.10;99.90
45108;DHT22;30869;51.188;6.556;2022-12-07T09:38:14;4.30;99.90
45108;DHT22;30869;51.188;6.556;2022-12-07T09:40:40;4.30;99.90
45108;DHT22;30869;51.188;6.556;2022-12-07T09:43:13;4.20;99.90
45108;DHT22;30869;51.188;6.556;2022-12-07T09:45:39;4.30;99.90
45108;DHT22;30869;51.188;6.556;2022-12-07T09:48:08;4.40;99.90
45108;DHT22;30869;51.188;6.556;2022-12-07T09:50:39;4.50;99.90
45108;DHT22;30869;51.188;6.556;2022-12-07T09:53:24;4.60;99.90
45108;DHT22;30869;51.188;6.556;2022-12-07T09:55:51;4.70;99.90
45108;DHT22;30869;51.188;6.556;2022-12-07T09:58:23;4.80;99.90
45108;DHT22;30869;51.188;6.556;2022-12-07T10:01:08;4.70;99.90
45108;DHT22;30869;51.188;6.556;2022-12-07T10:03:38;4.70;99.90
45108;DHT22;30869;51.188;6.556;2022-12-07T10:06:05;4.70;99.90
45108;DHT22;30869;51.188;6.556;2022-12-07T10:08:31;4.70;99.90
45108;DHT22;30869;51.188;6.556;2022-12-07T10:10:58;4.70;99.90
45108;DHT22;30869;51.188;6.556;2022-12-07T10:13:54;4.80;99.90
45108;DHT22;30869;51.188;6.556;2022-12-07T10:16:38;4.70;99.90
45108;DHT22;30869;51.188;6.556;2022-12-07T10:19:28;4.80;99.90
45108;DHT22;30869;51.188;6.556;2022-12-07T10:22:01;4.80;99.90
45108;DHT22;30869;51.188;6.556;2022-12-07T10:24:28;4.80;99.90
45108;DHT22;30869;51.188;6.556;2022-12-07T10:26:54;4.80;99.90
45108;DHT22;30869;51.188;6.556;2022-12-07T10:29:31;4.90;99.90
45108;DHT22;30869;51.188;6.556;2022-12-07T10:32:21;4.90;99.90
45108;DHT22;30869;51.188;6.556;2022-12-07T10:34:50;5.00;99.90
45108;DHT22;30869;51.188;6.556;2022-12-07T10:37:19;4.90;99.90
45108;DHT22;30869;51.188;6.556;2022-12-07T10:39:48;4.90;99.90
45108;DHT22;30869;51.188;6.556;2022-12-07T10:42:31;5.10;99.90
45108;DHT22;30869;51.188;6.556;2022-12-07T10:45:16;5.00;99.90
45108;DHT22;30869;51.188;6.556;2022-12-07T10:48:06;5.00;99.90
45108;DHT22;30869;51.188;6.556;2022-12-07T11:02:20;5.10;99.90
45108;DHT22;30869;51.188;6.556;2022-12-07T11:10:05;5.00;99.90
45108;DHT22;30869;51.188;6.556;2022-12-07T11:18:21;4.90;99.90
45108;DHT22;30869;51.188;6.556;2022-12-07T11:21:06;4.80;99.90
45108;DHT22;30869;51.188;6.556;2022-12-07T11:26:42;5.00;99.90
45108;DHT22;30869;51.188;6.556;2022-12-07T11:29:53;5.10;99.90
45108;DHT22;30869;51.188;6.556;2022-12-07T11:32:49;5.10;99.90
45108;DHT22;30869;51.188;6.556;2022-12-07T11:38:32;5.00;99.90
45108;DHT22;30869;51.188;6.556;2022-12-07T11:41:02;5.10;99.90
45108;DHT22;30869;51.188;6.556;2022-12-07T11:46:17;5.30;99.90
45108;DHT22;30869;51.188;6.556;2022-12-07T11:48:58;5.30;99.90
45108;DHT22;30869;51.188;6.556;2022-12-07T11:51:28;5.40;99.90
45108;DHT22;30869;51.188;6.556;2022-12-07T11:54:05;5.40;99.90
45108;DHT22;30869;51.188;6.556;2022-12-07T11:56:37;5.40;99.90
45108;DHT22;30869;51.188;6.556;2022-12-07T11:59:25;5.40;99.90
45108;DHT22;30869;51.188;6.556;2022-12-07T12:01:57;5.40;99.90
45108;DHT22;30869;51.188;6.556;2022-12-07T12:06:58;5.50;99.90
45108;DHT22;30869;51.188;6.556;2022-12-07T12:09:33;5.60;99.90
45108;DHT22;30869;51.188;6.556;2022-12-07T12:12:24;5.50;99.90
45108;DHT22;30869;51.188;6.556;2022-12-07T12:20:48;5.60;99.90
45108;DHT22;30869;51.188;6.556;2022-12-07T12:23:43;5.60;99.90
45108;DHT22;30869;51.188;6.556;2022-12-07T12:26:17;5.60;99.90
45108;DHT22;30869;51.188;6.556;2022-12-07T12:28:52;5.70;99.90
45108;DHT22;30869;51.188;6.556;2022-12-07T12:33:56;5.50;99.90
45108;DHT22;30869;51.188;6.556;2022-12-07T12:43:59;5.40;99.90
45108;DHT22;30869;51.188;6.556;2022-12-07T12:54:36;5.40;99.90
45108;DHT22;30869;51.188;6.556;2022-12-07T12:57:22;5.30;99.90
45108;DHT22;30869;51.188;6.556;2022-12-07T13:02:32;5.30;99.90
45108;DHT22;30869;51.188;6.556;2022-12-07T13:10:33;5.30;99.90
45108;DHT22;30869;51.188;6.556;2022-12-07T13:15:46;5.40;99.90
45108;DHT22;30869;51.188;6.556;2022-12-07T13:22:02;5.30;99.90
45108;DHT22;30869;51.188;6.556;2022-12-07T13:24:31;5.20;99.90
45108;DHT22;30869;51.188;6.556;2022-12-07T13:26:57;5.30;99.90
45108;DHT22;30869;51.188;6.556;2022-12-07T13:29:36;5.30;99.90
45108;DHT22;30869;51.188;6.556;2022-12-07T13:32:17;5.40;99.90
45108;DHT22;30869;51.188;6.556;2022-12-07T13:34:48;5.30;99.90
45108;DHT22;30869;51.188;6.556;2022-12-07T13:37:30;5.30;99.90
45108;DHT22;30869;51.188;6.556;2022-12-07T13:39:59;5.30;99.90
45108;DHT22;30869;51.188;6.556;2022-12-07T13:45:29;5.20;99.90
45108;DHT22;30869;51.188;6.556;2022-12-07T13:51:20;5.30;99.90
45108;DHT22;30869;51.188;6.556;2022-12-07T13:53:55;5.30;99.90
45108;DHT22;30869;51.188;6.556;2022-12-07T13:56:22;5.30;99.90
45108;DHT22;30869;51.188;6.556;2022-12-07T13:58:50;5.30;99.90
45108;DHT22;30869;51.188;6.556;2022-12-07T14:01:16;5.30;99.90
45108;DHT22;30869;51.188;6.556;2022-12-07T14:03:41;5.20;99.90
45108;DHT22;30869;51.188;6.556;2022-12-07T14:06:34;5.20;99.90
45108;DHT22;30869;51.188;6.556;2022-12-07T14:09:21;5.40;99.90
45108;DHT22;30869;51.188;6.556;2022-12-07T14:11:49;5.20;99.90
45108;DHT22;30869;51.188;6.556;2022-12-07T14:14:22;5.10;99.90
45108;DHT22;30869;51.188;6.556;2022-12-07T14:17:16;5.00;99.90
45108;DHT22;30869;51.188;6.556;2022-12-07T14:19:57;5.10;99.90
45108;DHT22;30869;51.188;6.556;2022-12-07T14:22:28;5.10;99.90
45108;DHT22;30869;51.188;6.556;2022-12-07T14:25:13;5.10;99.90
45108;DHT22;30869;51.188;6.556;2022-12-07T14:27:52;5.00;99.90
45108;DHT22;30869;51.188;6.556;2022-12-07T14:30:22;4.90;99.90
45108;DHT22;30869;51.188;6.556;2022-12-07T14:32:53;4.90;99.90
45108;DHT22;30869;51.188;6.556;2022-12-07T14:35:19;4.90;99.90
45108;DHT22;30869;51.188;6.556;2022-12-07T14:37:47;4.90;99.90
45108;DHT22;30869;51.188;6.556;2022-12-07T14:40:28;4.90;99.90
45108;DHT22;30869;51.188;6.556;2022-12-07T14:43:01;4.90;99.90
45108;DHT22;30869;51.188;6.556;2022-12-07T14:45:27;4.90;99.90
45108;DHT22;30869;51.188;6.556;2022-12-07T14:47:52;4.90;99.90
45108;DHT22;30869;51.188;6.556;2022-12-07T14:50:19;4.80;99.90
45108;DHT22;30869;51.188;6.556;2022-12-07T14:52:58;4.80;99.90
45108;DHT22;30869;51.188;6.556;2022-12-07T14:55:28;4.90;99.90
45108;DHT22;30869;51.188;6.556;2022-12-07T14:57:54;5.00;99.90
45108;DHT22;30869;51.188;6.556;2022-12-07T15:00:22;5.00;99.90
45108;DHT22;30869;51.188;6.556;2022-12-07T15:02:49;5.00;99.90
45108;DHT22;30869;51.188;6.556;2022-12-07T15:05:15;5.00;99.90
45108;DHT22;30869;51.188;6.556;2022-12-07T15:07:41;5.00;99.90
45108;DHT22;30869;51.188;6.556;2022-12-07T15:10:21;4.90;99.90
45108;DHT22;30869;51.188;6.556;2022-12-07T15:12:47;4.90;99.90
45108;DHT22;30869;51.188;6.556;2022-12-07T15:15:13;4.80;99.90
45108;DHT22;30869;51.188;6.556;2022-12-07T15:17:39;4.80;99.90
45108;DHT22;30869;51.188;6.556;2022-12-07T15:20:07;4.80;99.90
45108;DHT22;30869;51.188;6.556;2022-12-07T15:22:33;4.80;99.90
45108;DHT22;30869;51.188;6.556;2022-12-07T15:24:59;4.70;99.90
45108;DHT22;30869;51.188;6.556;2022-12-07T15:27:25;4.70;99.90
45108;DHT22;30869;51.188;6.556;2022-12-07T15:29:51;4.70;99.90
45108;DHT22;30869;51.188;6.556;2022-12-07T15:32:16;4.60;99.90
45108;DHT22;30869;51.188;6.556;2022-12-07T15:34:42;4.60;99.90
45108;DHT22;30869;51.188;6.556;2022-12-07T15:37:08;4.70;99.90
45108;DHT22;30869;51.188;6.556;2022-12-07T15:39:35;4.60;99.90
45108;DHT22;30869;51.188;6.556;2022-12-07T15:42:01;4.60;99.90
45108;DHT22;30869;51.188;6.556;2022-12-07T15:44:28;4.60;99.90
45108;DHT22;30869;51.188;6.556;2022-12-07T15:47:13;4.60;99.90
45108;DHT22;30869;51.188;6.556;2022-12-07T15:49:39;4.40;99.90
45108;DHT22;30869;51.188;6.556;2022-12-07T15:52:05;4.50;99.90
45108;DHT22;30869;51.188;6.556;2022-12-07T15:54:31;4.60;99.90
45108;DHT22;30869;51.188;6.556;2022-12-07T15:56:57;4.60;99.90
45108;DHT22;30869;51.188;6.556;2022-12-07T15:59:23;4.60;99.90
45108;DHT22;30869;51.188;6.556;2022-12-07T16:01:51;4.70;99.90
45108;DHT22;30869;51.188;6.556;2022-12-07T16:04:17;4.70;99.90
45108;DHT22;30869;51.188;6.556;2022-12-07T16:06:42;4.70;99.90
45108;DHT22;30869;51.188;6.556;2022-12-07T16:09:08;4.70;99.90
45108;DHT22;30869;51.188;6.556;2022-12-07T16:11:37;4.70;99.90
45108;DHT22;30869;51.188;6.556;2022-12-07T16:14:03;4.70;99.90
45108;DHT22;30869;51.188;6.556;2022-12-07T16:16:32;4.70;99.90
45108;DHT22;30869;51.188;6.556;2022-12-07T16:19:04;4.70;99.90
45108;DHT22;30869;51.188;6.556;2022-12-07T16:21:30;4.70;99.90
45108;DHT22;30869;51.188;6.556;2022-12-07T16:23:57;4.70;99.90
45108;DHT22;30869;51.188;6.556;2022-12-07T16:26:23;4.70;99.90
45108;DHT22;30869;51.188;6.556;2022-12-07T16:28:51;4.80;99.90
45108;DHT22;30869;51.188;6.556;2022-12-07T16:31:22;4.80;99.90
45108;DHT22;30869;51.188;6.556;2022-12-07T16:33:48;4.80;99.90
45108;DHT22;30869;51.188;6.556;2022-12-07T16:36:15;4.80;99.90
45108;DHT22;30869;51.188;6.556;2022-12-07T16:38:44;4.80;99.90
45108;DHT22;30869;51.188;6.556;2022-12-07T16:44:12;4.70;99.90
45108;DHT22;30869;51.188;6.556;2022-12-07T16:46:39;4.60;99.90
45108;DHT22;30869;51.188;6.556;2022-12-07T16:49:04;4.50;99.90
45108;DHT22;30869;51.188;6.556;2022-12-07T16:51:31;4.60;99.90
45108;DHT22;30869;51.188;6.556;2022-12-07T16:53:56;4.60;99.90
45108;DHT22;30869;51.188;6.556;2022-12-07T16:56:22;4.60;99.90
45108;DHT22;30869;51.188;6.556;2022-12-07T16:58:48;4.60;99.90
45108;DHT22;30869;51.188;6.556;2022-12-07T17:01:20;4.60;99.90
45108;DHT22;30869;51.188;6.556;2022-12-07T17:03:48;4.60;99.90
45108;DHT22;30869;51.188;6.556;2022-12-07T17:06:16;4.50;99.90
45108;DHT22;30869;51.188;6.556;2022-12-07T17:08:43;4.50;99.90
45108;DHT22;30869;51.188;6.556;2022-12-07T17:13:43;4.60;99.90
45108;DHT22;30869;51.188;6.556;2022-12-07T17:16:27;4.50;99.90
45108;DHT22;30869;51.188;6.556;2022-12-07T17:18:54;4.60;99.90
45108;DHT22;30869;51.188;6.556;2022-12-07T17:21:22;4.50;99.90
45108;DHT22;30869;51.188;6.556;2022-12-07T17:23:49;4.50;99.90
45108;DHT22;30869;51.188;6.556;2022-12-07T17:26:18;4.50;99.90
45108;DHT22;30869;51.188;6.556;2022-12-07T17:28:47;4.60;99.90
45108;DHT22;30869;51.188;6.556;2022-12-07T17:31:15;4.40;99.90
45108;DHT22;30869;51.188;6.556;2022-12-07T17:33:47;4.60;99.90
45108;DHT22;30869;51.188;6.556;2022-12-07T17:36:24;4.60;99.90
45108;DHT22;30869;51.188;6.556;2022-12-07T17:38:51;4.60;99.90
45108;DHT22;30869;51.188;6.556;2022-12-07T17:41:21;4.60;99.90
45108;DHT22;30869;51.188;6.556;2022-12-07T17:44:08;4.60;99.90
45108;DHT22;30869;51.188;6.556;2022-12-07T17:46:34;4.60;99.90
45108;DHT22;30869;51.188;6.556;2022-12-07T17:49:01;4.70;99.90
45108;DHT22;30869;51.188;6.556;2022-12-07T17:51:27;4.60;99.90
45108;DHT22;30869;51.188;6.556;2022-12-07T17:54:12;4.70;99.90
45108;DHT22;30869;51.188;6.556;2022-12-07T17:56:38;4.70;99.90
45108;DHT22;30869;51.188;6.556;2022-12-07T17:59:04;4.70;99.90